Time;durP1;ratioP1;P1;durP2;ratioP2;P2;SDS_P1;SDS_P2;PMS_P1;PMS_P2;Temp;Humidity;BMP_temperature;BMP_pressure;BME280_temperature;BME280_humidity;BME280_pressure;Samples;Min_cycle;Max_cycle;Signal;HPM_P1;HPM_P2
2022/11/19 00:01:07;;;;;;;12.98;9.85;;;1.70;99.90;;;;;;5092540;28;20043;-68
2022/11/19 00:03:34;;;;;;;16.52;10.68;;;1.70;99.90;;;;;;5104228;28;20048;-67
2022/11/19 00:06:09;;;;;;;13.32;10.63;;;1.70;99.90;;;;;;5109868;28;20043;-68
2022/11/19 00:08:35;;;;;;;14.05;10.45;;;1.70;99.90;;;;;;5108851;28;20059;-67
2022/11/19 00:11:10;;;;;;;12.65;10.05;;;1.60;99.90;;;;;;5104090;28;20036;-67
2022/11/19 00:13:40;;;;;;;13.55;9.75;;;1.60;99.90;;;;;;5109682;28;20178;-68
2022/11/19 00:16:09;;;;;;;12.75;9.73;;;1.60;99.90;;;;;;5107132;28;20047;-68
2022/11/19 00:18:34;;;;;;;12.52;9.68;;;1.60;99.90;;;;;;5088133;28;20051;-68
2022/11/19 00:21:08;;;;;;;13.63;9.82;;;1.60;99.90;;;;;;5105837;28;20031;-68
2022/11/19 00:23:35;;;;;;;12.35;9.10;;;1.60;99.90;;;;;;5107379;28;20043;-68
2022/11/19 00:26:12;;;;;;;11.23;9.27;;;1.60;99.90;;;;;;5107514;28;20092;-67
2022/11/19 00:28:38;;;;;;;11.43;8.73;;;1.60;99.90;;;;;;5105720;28;20508;-67
2022/11/19 00:31:09;;;;;;;12.90;9.35;;;1.60;99.90;;;;;;5107004;28;20028;-67
2022/11/19 00:33:35;;;;;;;12.98;9.38;;;1.60;99.90;;;;;;5109581;28;20084;-68
2022/11/19 00:36:02;;;;;;;13.02;9.68;;;1.60;99.90;;;;;;5108769;28;20044;-67
2022/11/19 00:38:29;;;;;;;12.65;9.68;;;1.60;99.90;;;;;;5106998;28;20530;-67
2022/11/19 00:40:55;;;;;;;12.10;9.27;;;1.60;99.90;;;;;;5105776;28;20118;-67
2022/11/19 00:46:05;;;;;;;11.82;9.05;;;1.60;99.90;;;;;;5101990;28;20040;-67
2022/11/19 00:48:30;;;;;;;11.40;9.10;;;1.60;99.90;;;;;;5104901;28;20402;-68
2022/11/19 00:50:56;;;;;;;12.50;9.27;;;1.60;99.90;;;;;;5109142;28;20638;-68
2022/11/19 00:53:22;;;;;;;12.00;9.45;;;1.60;99.90;;;;;;5106148;28;20535;-67
2022/11/19 00:55:47;;;;;;;13.00;9.18;;;1.60;99.90;;;;;;5104370;28;20405;-67
2022/11/19 00:58:13;;;;;;;11.55;9.10;;;1.60;99.90;;;;;;5106326;28;20082;-68
2022/11/19 01:00:38;;;;;;;11.93;9.02;;;1.60;99.90;;;;;;5089613;28;20043;-67
2022/11/19 01:03:05;;;;;;;11.18;8.48;;;1.60;99.90;;;;;;5101213;28;20036;-67
2022/11/19 01:05:30;;;;;;;12.10;8.57;;;1.60;99.90;;;;;;5104292;28;20036;-68
2022/11/19 01:07:56;;;;;;;11.88;9.00;;;1.60;99.90;;;;;;5104099;28;20039;-68
2022/11/19 01:10:22;;;;;;;11.68;8.40;;;1.60;99.90;;;;;;5103614;28;20039;-68
2022/11/19 01:15:31;;;;;;;11.30;8.00;;;1.60;99.90;;;;;;5106146;27;20458;-68
2022/11/19 01:17:57;;;;;;;12.02;8.45;;;1.60;99.90;;;;;;5108506;28;20118;-68
2022/11/19 01:20:23;;;;;;;10.10;7.30;;;1.60;99.90;;;;;;5099401;27;20482;-68
2022/11/19 01:22:48;;;;;;;9.10;7.18;;;1.60;99.90;;;;;;5081620;28;20098;-68
2022/11/19 01:25:15;;;;;;;9.52;7.28;;;1.60;99.90;;;;;;5104909;28;20031;-68
2022/11/19 01:27:40;;;;;;;9.77;7.60;;;1.50;99.90;;;;;;5103070;28;20077;-68
2022/11/19 01:30:07;;;;;;;10.25;7.30;;;1.50;99.90;;;;;;5092678;28;20436;-68
2022/11/19 01:32:33;;;;;;;9.60;6.85;;;1.50;99.90;;;;;;5100416;28;20039;-68
2022/11/19 01:34:58;;;;;;;9.95;6.95;;;1.50;99.90;;;;;;5106680;28;20705;-68
2022/11/19 01:37:25;;;;;;;8.35;6.03;;;1.60;99.90;;;;;;5101535;28;20054;-68
2022/11/19 01:39:51;;;;;;;9.48;7.05;;;1.50;99.90;;;;;;5104093;28;20031;-68
2022/11/19 01:42:50;;;;;;;7.85;6.40;;;1.50;99.90;;;;;;5109550;28;20064;-68
2022/11/19 01:45:35;;;;;;;7.90;6.35;;;1.50;99.90;;;;;;5105851;28;20097;-68
2022/11/19 01:48:31;;;;;;;8.18;5.82;;;1.50;99.90;;;;;;5096878;28;20038;-68
2022/11/19 01:51:03;;;;;;;9.75;5.60;;;1.50;99.90;;;;;;5046478;28;20040;-68
2022/11/19 01:53:32;;;;;;;7.53;5.90;;;1.50;99.90;;;;;;5046170;28;20056;-68
2022/11/19 01:56:02;;;;;;;7.18;5.88;;;1.40;99.90;;;;;;5045977;28;20055;-68
2022/11/19 01:58:31;;;;;;;6.90;5.15;;;1.40;99.90;;;;;;5053141;28;20170;-68
2022/11/19 02:00:57;;;;;;;6.82;5.40;;;1.50;99.90;;;;;;5042753;28;20478;-68
2022/11/19 02:03:24;;;;;;;7.00;5.18;;;1.40;99.90;;;;;;5044040;28;20056;-68
2022/11/19 02:05:50;;;;;;;5.68;4.60;;;1.40;99.90;;;;;;5042949;28;20080;-68
2022/11/19 02:08:38;;;;;;;7.20;5.03;;;1.40;99.90;;;;;;5022565;28;20055;-68
2022/11/19 02:11:19;;;;;;;4.82;4.28;;;1.40;99.90;;;;;;5044381;28;20072;-68
2022/11/19 02:14:07;;;;;;;5.72;4.28;;;1.40;99.90;;;;;;5019371;28;20187;-68
2022/11/19 02:16:55;;;;;;;6.03;4.20;;;1.40;99.90;;;;;;5045398;28;20048;-68
2022/11/19 02:19:34;;;;;;;5.72;3.90;;;1.30;99.90;;;;;;5046620;28;20106;-68
2022/11/19 02:22:14;;;;;;;6.32;4.03;;;1.30;99.90;;;;;;5048026;28;20102;-68
2022/11/19 02:24:50;;;;;;;5.68;4.28;;;1.30;99.90;;;;;;5044811;28;20040;-68
2022/11/19 02:27:24;;;;;;;6.40;3.97;;;1.30;99.90;;;;;;5037725;28;20052;-67
2022/11/19 02:29:56;;;;;;;6.85;4.57;;;1.20;99.90;;;;;;5082617;28;20105;-67
2022/11/19 02:32:30;;;;;;;4.75;3.97;;;1.20;99.90;;;;;;5083602;28;20040;-67
2022/11/19 02:35:03;;;;;;;4.55;3.78;;;1.20;99.90;;;;;;5087603;28;20032;-68
2022/11/19 02:37:31;;;;;;;;;;;1.20;99.90;;;;;;5070277;28;20044;-67
2022/11/19 02:40:06;;;;;;;7.38;4.32;;;1.10;99.90;;;;;;5091076;28;19990;-67
2022/11/19 02:42:53;;;;;;;6.13;4.18;;;1.10;99.90;;;;;;5090199;28;20040;-67
2022/11/19 02:45:25;;;;;;;4.75;3.90;;;1.10;99.90;;;;;;5090700;28;20105;-67
2022/11/19 02:47:55;;;;;;;6.38;4.55;;;1.10;99.90;;;;;;5088344;28;20039;-67
2022/11/19 02:50:26;;;;;;;5.30;4.20;;;1.10;99.90;;;;;;5085668;28;20113;-68
2022/11/19 02:52:53;;;;;;;5.53;4.10;;;1.00;99.90;;;;;;5089503;28;20486;-67
2022/11/19 02:55:20;;;;;;;5.38;4.07;;;1.00;99.90;;;;;;5107874;27;20413;-67
2022/11/19 02:57:59;;;;;;;5.97;4.07;;;1.00;99.90;;;;;;5096040;27;20065;-67
2022/11/19 03:06:14;;;;;;;5.63;4.10;;;0.90;99.90;;;;;;5111653;27;20043;-68
2022/11/19 03:08:40;;;;;;;4.65;4.03;;;0.90;99.90;;;;;;5092104;27;20043;-67
2022/11/19 03:11:23;;;;;;;5.55;4.10;;;0.80;99.90;;;;;;5095769;27;20039;-67
2022/11/19 03:17:06;;;;;;;6.43;4.40;;;0.70;99.90;;;;;;5112610;27;20043;-67
2022/11/19 03:19:55;;;;;;;5.90;4.63;;;0.70;99.90;;;;;;5112054;27;20114;-67
2022/11/19 03:22:36;;;;;;;6.05;4.65;;;0.70;99.90;;;;;;5111553;27;20422;-67
2022/11/19 03:25:04;;;;;;;6.18;4.57;;;0.60;99.90;;;;;;5110721;27;20039;-67
2022/11/19 03:27:52;;;;;;;5.75;4.32;;;0.60;99.90;;;;;;5110794;27;20043;-68
2022/11/19 03:30:19;;;;;;;6.05;4.55;;;0.60;99.90;;;;;;5112112;27;20114;-68
2022/11/19 03:32:51;;;;;;;6.22;4.72;;;0.50;99.90;;;;;;5112537;27;20034;-68
2022/11/19 03:35:23;;;;;;;7.72;4.53;;;0.50;99.90;;;;;;5110517;27;20034;-67
2022/11/19 03:37:53;;;;;;;6.35;5.07;;;0.50;99.90;;;;;;5108137;27;20043;-68
2022/11/19 03:40:20;;;;;;;8.95;4.75;;;0.50;99.90;;;;;;5114474;27;20074;-68
2022/11/19 03:42:52;;;;;;;5.40;4.43;;;0.40;99.90;;;;;;5105577;27;20130;-68
2022/11/19 03:45:22;;;;;;;6.18;4.75;;;0.40;99.90;;;;;;5095124;27;20051;-67
2022/11/19 03:47:48;;;;;;;7.18;4.75;;;0.40;99.90;;;;;;5113659;27;20035;-67
2022/11/19 03:50:37;;;;;;;6.75;5.10;;;0.40;99.90;;;;;;5113350;27;20039;-67
2022/11/19 03:53:03;;;;;;;7.18;4.80;;;0.40;99.90;;;;;;5107661;27;20039;-68
2022/11/19 03:55:41;;;;;;;7.10;4.82;;;0.30;99.90;;;;;;5111526;27;20058;-67
2022/11/19 03:58:09;;;;;;;5.80;4.53;;;0.30;99.90;;;;;;5108821;27;20093;-68
2022/11/19 04:00:35;;;;;;;5.75;4.07;;;0.30;99.90;;;;;;5110646;27;20035;-67
2022/11/19 04:03:01;;;;;;;7.55;4.55;;;0.30;99.90;;;;;;5108473;27;20039;-67
2022/11/19 04:05:26;;;;;;;7.07;5.45;;;0.30;99.90;;;;;;5115069;27;20127;-68
2022/11/19 04:07:52;;;;;;;5.50;4.32;;;0.20;99.90;;;;;;5110979;27;20035;-67
2022/11/19 04:10:17;;;;;;;6.22;4.80;;;0.20;99.90;;;;;;5110931;27;20359;-67
2022/11/19 04:12:43;;;;;;;6.32;4.35;;;0.10;99.90;;;;;;5107276;27;20035;-67
2022/11/19 04:15:11;;;;;;;5.90;4.15;;;0.10;99.90;;;;;;5111731;27;20027;-68
2022/11/19 04:17:37;;;;;;;6.05;4.43;;;0.10;99.90;;;;;;5111479;27;20054;-67
2022/11/19 04:20:04;;;;;;;6.85;4.50;;;0.10;99.90;;;;;;5112898;27;20472;-68
2022/11/19 04:22:30;;;;;;;6.45;4.50;;;0.10;99.90;;;;;;5110559;27;20047;-67
2022/11/19 04:24:56;;;;;;;5.43;4.38;;;0.10;99.90;;;;;;5109305;27;20032;-67
2022/11/19 04:27:21;;;;;;;5.78;4.43;;;0.00;99.90;;;;;;5104530;27;20038;-67
2022/11/19 04:29:47;;;;;;;5.22;3.88;;;0.00;99.90;;;;;;5113203;27;20096;-67
2022/11/19 04:32:12;;;;;;;5.78;4.20;;;0.00;99.90;;;;;;5112180;27;20087;-67
2022/11/19 04:34:38;;;;;;;6.13;4.68;;;0.00;99.90;;;;;;5110138;27;20067;-67
2022/11/19 04:37:04;;;;;;;5.88;4.32;;;0.00;99.90;;;;;;5112298;27;20035;-67
2022/11/19 04:39:29;;;;;;;6.20;4.30;;;0.00;99.90;;;;;;5108414;27;20415;-67
2022/11/19 04:41:55;;;;;;;6.53;4.70;;;0.00;99.90;;;;;;5112436;27;20529;-67
2022/11/19 04:44:20;;;;;;;7.13;4.55;;;0.00;99.90;;;;;;5109794;27;20112;-67
2022/11/19 04:46:46;;;;;;;5.25;3.88;;;-0.10;99.90;;;;;;5105505;27;20037;-67
2022/11/19 04:49:12;;;;;;;6.75;5.10;;;-0.10;99.90;;;;;;5112302;27;20059;-68
2022/11/19 04:51:37;;;;;;;6.03;4.22;;;-0.10;99.90;;;;;;5110881;27;20039;-68
2022/11/19 04:54:03;;;;;;;5.47;4.28;;;-0.10;99.90;;;;;;5110398;27;20055;-67
2022/11/19 04:56:29;;;;;;;6.13;4.25;;;-0.10;99.90;;;;;;5107167;27;20055;-67
2022/11/19 04:58:54;;;;;;;5.10;4.25;;;-0.10;99.90;;;;;;5111532;27;20071;-68
2022/11/19 05:01:20;;;;;;;6.15;4.43;;;-0.10;99.90;;;;;;5112901;27;20117;-68
2022/11/19 05:03:47;;;;;;;4.95;3.97;;;-0.20;99.90;;;;;;5108981;27;20046;-68
2022/11/19 05:06:13;;;;;;;6.10;4.00;;;-0.20;99.90;;;;;;5111899;27;20474;-68
2022/11/19 05:08:38;;;;;;;4.75;3.83;;;-0.20;99.90;;;;;;5105560;27;20038;-67
2022/11/19 05:11:04;;;;;;;7.25;5.07;;;-0.20;99.90;;;;;;5109054;27;20038;-68
2022/11/19 05:13:30;;;;;;;5.57;4.15;;;-0.20;99.90;;;;;;5108016;27;20043;-67
2022/11/19 05:15:56;;;;;;;5.82;4.40;;;-0.20;99.90;;;;;;5094334;27;20035;-67
2022/11/19 05:18:23;;;;;;;5.68;4.28;;;-0.20;99.90;;;;;;5103523;27;20081;-67
2022/11/19 05:20:48;;;;;;;5.28;4.00;;;-0.20;99.90;;;;;;5109678;27;20047;-68
2022/11/19 05:23:14;;;;;;;6.57;5.18;;;-0.30;99.90;;;;;;5091890;27;20046;-68
2022/11/19 05:25:39;;;;;;;5.80;4.18;;;-0.30;99.90;;;;;;5111884;27;20069;-68
2022/11/19 05:28:05;;;;;;;6.22;4.00;;;-0.30;99.90;;;;;;5105592;27;20031;-68
2022/11/19 05:30:31;;;;;;;5.53;4.30;;;-0.30;99.90;;;;;;5111843;27;20035;-67
2022/11/19 05:32:56;;;;;;;5.60;4.10;;;-0.30;99.90;;;;;;5103277;27;20489;-68
2022/11/19 05:35:22;;;;;;;5.65;4.20;;;-0.40;99.90;;;;;;5108773;27;20080;-67
2022/11/19 05:37:49;;;;;;;6.68;4.57;;;-0.40;99.90;;;;;;5111565;27;20126;-67
2022/11/19 05:40:15;;;;;;;7.10;4.35;;;-0.40;99.90;;;;;;5109723;27;21236;-67
2022/11/19 05:42:41;;;;;;;5.70;4.32;;;-0.40;99.90;;;;;;5108626;27;20047;-67
2022/11/19 05:45:07;;;;;;;5.50;4.47;;;-0.40;99.90;;;;;;5109567;27;20093;-67
2022/11/19 05:47:33;;;;;;;6.07;4.15;;;-0.40;99.90;;;;;;5111590;27;20027;-67
2022/11/19 05:49:58;;;;;;;5.53;4.50;;;-0.40;99.90;;;;;;5104744;27;20046;-68
2022/11/19 05:52:24;;;;;;;6.10;4.45;;;-0.40;99.90;;;;;;5108978;28;20450;-67
2022/11/19 05:54:50;;;;;;;5.93;4.82;;;-0.40;99.90;;;;;;5104925;27;20288;-68
2022/11/19 05:57:15;;;;;;;5.70;4.40;;;-0.40;99.90;;;;;;5110936;28;20055;-67
2022/11/19 05:59:41;;;;;;;5.57;4.53;;;-0.40;99.90;;;;;;5105805;28;20043;-67
2022/11/19 06:02:07;;;;;;;6.30;4.60;;;-0.40;99.90;;;;;;5109686;28;20042;-67
2022/11/19 06:04:32;;;;;;;5.93;4.53;;;-0.50;99.90;;;;;;5104128;28;20043;-68
2022/11/19 06:06:58;;;;;;;7.53;4.70;;;-0.50;99.90;;;;;;5110742;27;20379;-68
2022/11/19 06:09:24;;;;;;;6.22;4.43;;;-0.50;99.90;;;;;;5114710;27;20118;-67
2022/11/19 06:11:49;;;;;;;7.40;4.88;;;-0.50;99.90;;;;;;5109284;27;20168;-67
2022/11/19 06:14:21;;;;;;;5.53;4.22;;;-0.50;99.90;;;;;;5093969;27;20039;-67
2022/11/19 06:16:54;;;;;;;5.95;4.55;;;-0.50;99.90;;;;;;5095773;27;20073;-68
2022/11/19 06:19:20;;;;;;;5.95;4.55;;;-0.50;99.90;;;;;;5112538;27;20039;-67
2022/11/19 06:21:47;;;;;;;6.97;4.97;;;-0.50;99.90;;;;;;5109393;27;20179;-68
2022/11/19 06:24:13;;;;;;;8.13;5.55;;;-0.50;99.90;;;;;;5107200;27;20047;-67
2022/11/19 06:26:39;;;;;;;5.95;4.82;;;-0.60;99.90;;;;;;5094468;27;20051;-67
2022/11/19 06:29:05;;;;;;;6.63;4.90;;;-0.60;99.90;;;;;;5087580;27;20400;-67
2022/11/19 06:31:31;;;;;;;6.60;5.22;;;-0.60;99.90;;;;;;5109467;27;20067;-68
2022/11/19 06:33:57;;;;;;;6.38;4.63;;;-0.60;99.90;;;;;;5106080;27;20074;-67
2022/11/19 06:36:24;;;;;;;6.28;5.28;;;-0.60;99.90;;;;;;5105860;27;20043;-66
2022/11/19 06:38:50;;;;;;;8.23;5.28;;;-0.60;99.90;;;;;;5096296;27;20035;-66
2022/11/19 06:41:15;;;;;;;6.97;5.45;;;-0.70;99.90;;;;;;5116215;27;20042;-65
2022/11/19 06:43:42;;;;;;;7.10;5.50;;;-0.70;99.90;;;;;;5116067;27;20401;-66
2022/11/19 06:46:08;;;;;;;9.18;6.05;;;-0.70;99.90;;;;;;5115045;27;20054;-66
2022/11/19 06:48:34;;;;;;;9.73;6.60;;;-0.70;99.90;;;;;;5116459;27;20088;-67
2022/11/19 06:51:00;;;;;;;8.82;6.28;;;-0.70;99.90;;;;;;5115288;27;20039;-67
2022/11/19 06:53:26;;;;;;;8.93;6.82;;;-0.70;99.90;;;;;;5116231;27;20035;-67
2022/11/19 06:55:57;;;;;;;9.32;7.18;;;-0.80;99.90;;;;;;5097766;27;20047;-66
2022/11/19 06:58:22;;;;;;;9.10;7.07;;;-0.70;99.90;;;;;;5116124;27;20088;-68
2022/11/19 07:00:48;;;;;;;8.90;6.57;;;-0.80;99.90;;;;;;5114301;27;20439;-65
2022/11/19 07:03:14;;;;;;;8.27;6.70;;;-0.80;99.90;;;;;;5115648;27;20039;-66
2022/11/19 07:05:40;;;;;;;8.23;6.82;;;-0.80;99.90;;;;;;5098554;27;20460;-67
2022/11/19 07:08:06;;;;;;;9.73;6.95;;;-0.80;99.90;;;;;;5098780;27;20082;-67
2022/11/19 07:10:32;;;;;;;11.57;7.38;;;-0.80;99.90;;;;;;5109554;27;20036;-67
2022/11/19 07:12:59;;;;;;;9.52;7.15;;;-0.80;99.90;;;;;;5115853;27;20049;-66
2022/11/19 07:15:24;;;;;;;9.73;7.18;;;-0.80;99.90;;;;;;5112080;27;20135;-66
2022/11/19 07:17:50;;;;;;;9.85;7.47;;;-0.80;99.90;;;;;;5092253;27;20126;-67
2022/11/19 07:20:16;;;;;;;9.43;7.38;;;-0.80;99.90;;;;;;5114255;27;20047;-66
2022/11/19 07:22:42;;;;;;;9.65;7.07;;;-0.80;99.90;;;;;;5093926;27;20045;-66
2022/11/19 07:25:11;;;;;;;10.35;7.00;;;-0.80;99.90;;;;;;5111587;27;20122;-66
2022/11/19 07:27:37;;;;;;;9.75;7.55;;;-0.70;99.90;;;;;;5095758;27;20045;-67
2022/11/19 07:30:05;;;;;;;10.05;7.78;;;-0.80;99.90;;;;;;5114165;27;20034;-67
2022/11/19 07:32:31;;;;;;;9.55;7.75;;;-0.70;99.90;;;;;;5115126;27;20409;-66
2022/11/19 07:34:56;;;;;;;9.40;7.15;;;-0.70;99.90;;;;;;5112657;27;20095;-67
2022/11/19 07:37:22;;;;;;;10.77;8.30;;;-0.70;99.90;;;;;;5133139;27;20066;-66
2022/11/19 07:39:48;;;;;;;10.35;8.18;;;-0.70;99.90;;;;;;5112858;27;20135;-67
2022/11/19 07:42:55;;;;;;;10.70;7.65;;;-0.70;99.90;;;;;;5112420;27;20428;-66
2022/11/19 07:45:03;;;;;;;10.88;7.70;;;-0.70;99.90;;;;;;5120078;27;20039;-68
2022/11/19 07:47:28;;;;;;;10.38;7.80;;;-0.60;99.90;;;;;;5113024;27;20043;-67
2022/11/19 07:49:54;;;;;;;10.65;7.72;;;-0.60;99.90;;;;;;5111031;27;20068;-66
2022/11/19 07:52:20;;;;;;;9.73;7.60;;;-0.60;99.90;;;;;;5113729;27;20099;-66
2022/11/19 07:54:47;;;;;;;8.73;6.78;;;-0.50;99.90;;;;;;5093882;28;20126;-67
2022/11/19 07:57:13;;;;;;;9.77;7.70;;;-0.50;99.90;;;;;;5093558;28;20412;-66
2022/11/19 07:59:39;;;;;;;9.73;7.45;;;-0.50;99.90;;;;;;5111411;28;20115;-66
2022/11/19 08:02:05;;;;;;;10.30;7.85;;;-0.50;99.90;;;;;;5111211;28;20048;-66
2022/11/19 08:04:30;;;;;;;9.10;7.40;;;-0.50;99.90;;;;;;5111259;28;20406;-66
2022/11/19 08:06:56;;;;;;;9.82;7.68;;;-0.50;99.90;;;;;;5111418;28;20064;-67
2022/11/19 08:09:22;;;;;;;9.68;7.72;;;-0.40;99.90;;;;;;5111396;28;20114;-67
2022/11/19 08:11:47;;;;;;;11.52;8.02;;;-0.40;99.90;;;;;;5110802;28;20044;-67
2022/11/19 08:14:13;;;;;;;11.23;8.18;;;-0.40;99.90;;;;;;5112356;28;20050;-67
2022/11/19 08:19:24;;;;;;;9.20;6.80;;;-0.30;99.90;;;;;;5111422;28;20047;-68
2022/11/19 08:21:49;;;;;;;10.48;7.30;;;-0.30;99.90;;;;;;5110801;28;20119;-67
2022/11/19 08:24:18;;;;;;;10.02;7.53;;;-0.30;99.90;;;;;;5112019;28;20044;-68
2022/11/19 08:26:44;;;;;;;10.52;7.72;;;-0.20;99.90;;;;;;5110961;28;20485;-68
2022/11/19 08:29:12;;;;;;;10.32;7.68;;;-0.20;99.90;;;;;;5110796;28;20048;-67
2022/11/19 08:31:38;;;;;;;10.25;7.07;;;-0.10;99.90;;;;;;5111055;28;20520;-68
2022/11/19 08:34:04;;;;;;;10.80;7.75;;;-0.10;99.90;;;;;;5110921;28;20035;-68
2022/11/19 08:36:30;;;;;;;8.98;7.20;;;0.00;99.90;;;;;;5093785;28;20047;-67
2022/11/19 08:38:59;;;;;;;8.82;7.03;;;0.00;99.90;;;;;;5110818;28;20464;-68
2022/11/19 08:44:11;;;;;;;9.40;7.05;;;0.10;99.90;;;;;;5110365;28;20079;-68
2022/11/19 08:46:37;;;;;;;9.40;7.28;;;0.10;99.90;;;;;;5110616;28;20425;-69
2022/11/19 08:49:03;;;;;;;9.25;7.55;;;0.20;99.90;;;;;;5110482;28;20050;-67
2022/11/19 08:51:28;;;;;;;10.43;7.45;;;0.20;99.90;;;;;;5110647;28;20046;-67
2022/11/19 08:53:54;;;;;;;9.40;7.10;;;0.30;99.90;;;;;;5111686;27;20040;-67
2022/11/19 08:56:20;;;;;;;9.60;7.05;;;0.40;99.90;;;;;;5113495;27;20562;-68
2022/11/19 08:58:46;;;;;;;9.23;7.10;;;0.50;99.90;;;;;;5113286;27;20098;-68
2022/11/19 09:01:14;;;;;;;10.15;6.85;;;0.60;99.90;;;;;;5107184;27;20039;-67
2022/11/19 09:03:40;;;;;;;8.60;6.95;;;0.70;99.90;;;;;;5112276;27;20084;-67
2022/11/19 09:06:06;;;;;;;8.48;6.50;;;0.80;99.90;;;;;;5112958;27;20051;-67
2022/11/19 09:08:32;;;;;;;8.18;6.38;;;0.90;99.90;;;;;;5113197;27;20034;-68
2022/11/19 09:10:58;;;;;;;10.02;7.38;;;1.00;99.90;;;;;;5113398;27;20470;-67
2022/11/19 09:13:24;;;;;;;9.18;6.63;;;1.20;99.90;;;;;;5110047;27;20042;-67
2022/11/19 09:15:50;;;;;;;8.27;6.10;;;1.40;99.90;;;;;;5113417;27;20042;-68
2022/11/19 09:18:16;;;;;;;8.85;6.90;;;1.60;99.90;;;;;;5095384;27;20043;-67
2022/11/19 09:20:42;;;;;;;10.48;7.15;;;1.80;99.90;;;;;;5113446;27;20397;-67
2022/11/19 09:23:08;;;;;;;8.40;6.53;;;2.00;99.90;;;;;;5095547;27;20043;-67
2022/11/19 09:25:33;;;;;;;7.35;6.30;;;2.20;99.90;;;;;;5111286;27;20099;-67
2022/11/19 09:27:59;;;;;;;8.13;6.32;;;2.40;99.90;;;;;;5112724;27;20038;-67
2022/11/19 09:30:25;;;;;;;8.48;6.30;;;2.60;99.90;;;;;;5112790;27;20046;-67
2022/11/19 09:32:50;;;;;;;6.72;5.70;;;2.90;99.90;;;;;;5111830;27;20031;-67
2022/11/19 09:35:16;;;;;;;8.18;6.40;;;3.00;99.90;;;;;;5129317;27;20039;-67
2022/11/19 09:37:42;;;;;;;7.45;6.15;;;3.20;99.90;;;;;;5112505;27;20047;-67
2022/11/19 09:40:15;;;;;;;8.30;6.28;;;3.40;99.90;;;;;;5113001;27;20043;-67
2022/11/19 09:43:16;;;;;;;8.15;6.45;;;3.60;99.90;;;;;;5112538;27;20031;-67
2022/11/19 09:45:51;;;;;;;6.72;5.68;;;3.90;99.90;;;;;;5087888;27;20050;-67
2022/11/19 09:48:25;;;;;;;7.32;5.53;;;4.10;99.90;;;;;;5112110;27;20057;-67
2022/11/19 09:50:59;;;;;;;8.13;5.68;;;4.40;99.90;;;;;;5107951;28;20035;-67
2022/11/19 09:53:29;;;;;;;7.13;5.72;;;4.70;99.90;;;;;;5110977;27;20082;-67
2022/11/19 09:55:57;;;;;;;7.72;5.75;;;5.00;99.90;;;;;;5092752;27;20051;-68
2022/11/19 09:58:42;;;;;;;6.20;5.25;;;5.20;99.90;;;;;;5109734;28;20039;-68
2022/11/19 10:01:17;;;;;;;7.75;5.65;;;5.30;99.90;;;;;;5112157;28;20054;-67
2022/11/19 10:03:48;;;;;;;9.30;6.35;;;5.50;99.90;;;;;;5113106;28;20043;-67
2022/11/19 10:06:14;;;;;;;7.43;5.63;;;5.50;99.90;;;;;;5096131;28;20031;-68
2022/11/19 10:08:48;;;;;;;7.60;5.78;;;5.70;99.90;;;;;;5112803;28;20031;-67
2022/11/19 10:11:32;;;;;;;6.40;5.43;;;5.90;99.90;;;;;;5095683;28;20035;-68
2022/11/19 10:14:19;;;;;;;7.50;5.90;;;6.00;99.90;;;;;;5112909;28;20048;-67
2022/11/19 10:17:20;;;;;;;7.00;5.85;;;6.10;99.90;;;;;;5113016;28;20030;-67
2022/11/19 10:20:26;;;;;;;8.98;6.85;;;6.30;99.90;;;;;;5096348;28;20117;-68
2022/11/19 10:23:18;;;;;;;6.88;5.90;;;6.40;99.90;;;;;;5106848;28;20046;-68
2022/11/19 10:25:46;;;;;;;6.78;5.70;;;6.60;99.90;;;;;;5011384;28;20125;-67
2022/11/19 10:28:18;;;;;;;8.00;5.88;;;6.70;99.90;;;;;;5011693;28;20049;-68
2022/11/19 10:30:53;;;;;;;7.68;5.05;;;6.70;99.90;;;;;;5011381;28;20150;-68
2022/11/19 10:33:36;;;;;;;5.93;5.32;;;6.70;99.90;;;;;;5011389;28;20115;-68
2022/11/19 10:36:12;;;;;;;6.00;5.40;;;6.80;99.90;;;;;;5011780;28;20033;-67
2022/11/19 10:39:03;;;;;;;6.93;5.82;;;6.80;99.90;;;;;;5011473;28;20842;-67
2022/11/19 10:41:44;;;;;;;6.22;5.55;;;6.80;99.90;;;;;;5011147;28;20053;-68
2022/11/19 10:44:39;;;;;;;7.50;6.30;;;6.80;99.90;;;;;;5011327;28;20570;-68
2022/11/19 10:47:09;;;;;;;6.38;5.60;;;6.90;99.90;;;;;;5011799;28;20051;-67
2022/11/19 10:49:39;;;;;;;6.50;5.13;;;6.80;99.80;;;;;;5011485;28;20058;-68
2022/11/19 10:52:36;;;;;;;5.68;5.07;;;6.50;98.90;;;;;;5009643;28;20033;-68
2022/11/19 10:55:16;;;;;;;6.60;5.45;;;6.30;98.50;;;;;;4988866;28;20053;-67
2022/11/19 10:57:45;;;;;;;5.68;5.07;;;6.00;98.60;;;;;;4995108;28;20049;-67
2022/11/19 11:00:11;;;;;;;6.07;4.85;;;5.80;99.10;;;;;;4995143;28;20046;-67
2022/11/19 11:02:50;;;;;;;5.53;4.90;;;5.60;99.50;;;;;;5012699;28;20570;-67
2022/11/19 11:05:17;;;;;;;6.15;5.30;;;5.50;99.00;;;;;;5034133;28;20130;-68
2022/11/19 11:08:08;;;;;;;6.57;5.35;;;5.40;99.20;;;;;;5051054;28;20095;-67
2022/11/19 11:10:44;;;;;;;7.43;5.30;;;5.30;99.10;;;;;;5034115;28;20071;-67
2022/11/19 11:16:21;;;;;;;5.78;5.03;;;5.10;99.10;;;;;;5034123;28;20076;-68
2022/11/19 11:18:48;;;;;;;6.20;5.20;;;5.10;99.50;;;;;;5033989;28;20056;-67
2022/11/19 11:21:35;;;;;;;5.75;4.78;;;5.20;99.40;;;;;;5034124;28;20041;-68
2022/11/19 11:24:03;;;;;;;6.45;4.93;;;5.50;98.80;;;;;;5033952;28;20191;-67
2022/11/19 11:26:32;;;;;;;5.60;4.95;;;5.40;98.30;;;;;;5016228;28;20060;-67
2022/11/19 11:29:04;;;;;;;5.63;4.50;;;5.60;98.30;;;;;;5017260;28;20130;-68
2022/11/19 11:31:41;;;;;;;6.43;4.82;;;5.90;97.70;;;;;;5076789;27;20047;-67
2022/11/19 11:34:26;;;;;;;6.78;5.22;;;5.80;97.20;;;;;;5116152;27;20039;-67
2022/11/19 11:36:52;;;;;;;5.78;4.65;;;5.50;96.40;;;;;;5115684;27;20047;-67
2022/11/19 11:39:39;;;;;;;5.68;4.80;;;5.70;97.70;;;;;;5115867;27;20390;-68
2022/11/19 11:42:10;;;;;;;5.43;4.28;;;5.70;97.40;;;;;;5116264;27;20497;-68
2022/11/19 11:44:46;;;;;;;4.93;4.25;;;6.40;96.80;;;;;;5115577;27;20524;-67
2022/11/19 11:47:18;;;;;;;4.90;4.10;;;6.40;96.30;;;;;;5115570;27;20242;-67
2022/11/19 11:49:48;;;;;;;5.30;4.68;;;7.40;95.40;;;;;;5112523;27;20039;-67
2022/11/19 11:52:27;;;;;;;6.20;5.05;;;8.30;95.00;;;;;;5115293;27;20100;-67
2022/11/19 11:54:52;;;;;;;6.75;5.63;;;8.20;93.60;;;;;;5113671;27;20493;-67
2022/11/19 11:57:23;;;;;;;7.78;5.30;;;7.90;94.20;;;;;;5115301;27;20047;-68
2022/11/19 11:59:48;;;;;;;7.95;5.00;;;7.60;93.80;;;;;;5115498;27;20070;-67
2022/11/19 12:02:20;;;;;;;5.28;4.45;;;7.00;94.50;;;;;;5098202;27;20089;-68
2022/11/19 12:04:45;;;;;;;5.93;4.20;;;7.20;94.90;;;;;;5114890;27;20043;-68
2022/11/19 12:07:32;;;;;;;5.00;4.28;;;7.00;94.70;;;;;;5115511;27;20046;-67
2022/11/19 12:10:25;;;;;;;5.80;4.72;;;6.90;94.70;;;;;;5114958;27;20031;-67
2022/11/19 12:13:02;;;;;;;7.38;5.68;;;8.00;94.60;;;;;;5115135;27;20047;-67
2022/11/19 12:15:53;;;;;;;6.03;4.40;;;8.60;94.30;;;;;;5114886;27;20039;-68
2022/11/19 12:18:33;;;;;;;4.85;4.30;;;8.80;93.90;;;;;;5097911;27;20042;-67
2022/11/19 12:21:02;;;;;;;5.63;4.20;;;10.00;93.30;;;;;;5114746;27;20036;-68
2022/11/19 12:23:32;;;;;;;7.80;5.00;;;9.40;92.20;;;;;;5097622;27;20126;-67
2022/11/19 12:26:26;;;;;;;5.40;4.70;;;9.10;91.90;;;;;;5097913;27;20042;-68
2022/11/19 12:28:55;;;;;;;5.78;4.57;;;9.40;91.40;;;;;;5114555;27;20042;-68
2022/11/19 12:31:58;;;;;;;6.13;4.45;;;9.80;91.50;;;;;;5114916;27;20031;-67
2022/11/19 12:34:42;;;;;;;5.32;4.50;;;11.30;90.00;;;;;;5114671;27;20122;-67
2022/11/19 12:37:23;;;;;;;5.25;4.30;;;10.50;90.30;;;;;;5114402;27;20072;-68
2022/11/19 12:40:10;;;;;;;5.47;4.00;;;10.10;90.50;;;;;;5114677;27;20050;-67
2022/11/19 12:42:58;;;;;;;5.53;4.32;;;9.30;90.50;;;;;;5107033;28;20128;-69
2022/11/19 12:45:49;;;;;;;6.03;4.43;;;8.40;90.10;;;;;;5114186;27;20418;-68
2022/11/19 12:48:35;;;;;;;7.22;4.78;;;7.90;91.20;;;;;;5113928;27;20394;-68
2022/11/19 12:51:12;;;;;;;4.65;3.65;;;7.90;92.00;;;;;;5114145;27;20039;-68
2022/11/19 12:53:56;;;;;;;7.57;4.15;;;8.40;91.70;;;;;;5096409;27;20051;-67
2022/11/19 12:56:33;;;;;;;4.45;4.00;;;8.50;91.50;;;;;;5113309;27;20090;-68
2022/11/19 12:59:12;;;;;;;4.57;4.05;;;8.00;92.00;;;;;;5113873;27;20086;-67
2022/11/19 13:01:41;;;;;;;5.97;4.05;;;7.80;92.30;;;;;;5111907;27;20066;-68
2022/11/19 13:04:23;;;;;;;5.40;3.97;;;8.80;92.50;;;;;;5113612;27;20087;-68
2022/11/19 13:07:01;;;;;;;4.25;3.80;;;8.60;91.80;;;;;;5113638;27;20056;-67
2022/11/19 13:09:47;;;;;;;5.20;4.40;;;8.80;91.40;;;;;;5113859;27;20035;-67
2022/11/19 13:12:26;;;;;;;4.55;3.90;;;8.90;90.70;;;;;;5113766;27;20027;-67
2022/11/19 13:14:59;;;;;;;4.80;4.30;;;8.60;90.70;;;;;;5113548;27;20035;-68
2022/11/19 13:17:30;;;;;;;5.72;4.90;;;7.90;90.40;;;;;;5113481;27;20811;-68
2022/11/19 13:20:01;;;;;;;5.47;4.53;;;7.80;91.20;;;;;;5113575;27;20051;-68
2022/11/19 13:22:36;;;;;;;8.20;5.30;;;7.60;92.20;;;;;;5113734;27;20062;-67
2022/11/19 13:25:11;;;;;;;10.25;6.32;;;7.40;92.40;;;;;;5113217;27;20043;-68
2022/11/19 13:27:38;;;;;;;5.15;4.40;;;7.20;92.20;;;;;;5113916;27;20645;-67
2022/11/19 13:30:05;;;;;;;5.00;4.35;;;7.20;92.50;;;;;;5113413;27;20110;-68
2022/11/19 13:32:46;;;;;;;4.60;4.10;;;7.30;92.80;;;;;;5113580;27;20039;-68
2022/11/19 13:35:24;;;;;;;4.30;3.90;;;7.40;92.50;;;;;;5096221;27;20082;-68